Terminal Aerodrome Forecast
Issued by NWS

Home | Current Version | Previous Version | Text Only | Print | Product List | Glossary On
Versions: 1 2 3 4 5 6 7 8 9 10 11 12 13 14
000
FTUS45 KABQ 141100
TAFROW
TAF
KROW 141138Z 1412/1512 33005KT P6SM SCT120
     FM141900 15010G18KT P6SM SCT080 BKN120
      TEMPO 1420/1424 5SM -TSRA OVC050CB
     FM150000 17005KT P6SM BKN090
     FM150300 13008KT P6SM SCT070 BKN100 PROB30 1506/1509 -RA BKN060
      OVC100=

USA.gov is the U.S. government's official web portal to all federal, state and local government web resources and services.